createdAt,value
2022-10-09T00:01:02.968Z,3.80
2022-10-09T00:03:32.207Z,3.30
2022-10-09T00:05:59.816Z,3.25
2022-10-09T00:08:27.439Z,3.45
2022-10-09T00:10:55.700Z,3.33
2022-10-09T00:13:23.478Z,3.95
2022-10-09T00:15:51.079Z,3.55
2022-10-09T00:18:19.505Z,2.85
2022-10-09T00:20:48.441Z,3.45
2022-10-09T00:23:17.394Z,3.20
2022-10-09T00:25:51.568Z,3.70
2022-10-09T00:28:19.136Z,3.63
2022-10-09T00:30:46.704Z,3.85
2022-10-09T00:33:14.446Z,3.00
2022-10-09T00:35:42.122Z,3.17
2022-10-09T00:38:11.399Z,3.53
2022-10-09T00:40:39.109Z,3.97
2022-10-09T00:43:08.257Z,2.97
2022-10-09T00:45:35.788Z,3.28
2022-10-09T00:48:05.908Z,3.30
2022-10-09T00:50:39.407Z,3.40
2022-10-09T00:53:07.110Z,4.45
2022-10-09T00:55:36.676Z,3.78
2022-10-09T00:58:04.275Z,3.65
2022-10-09T01:00:31.831Z,3.95
2022-10-09T01:02:59.382Z,3.88
2022-10-09T01:05:34.903Z,3.78
2022-10-09T01:08:06.336Z,5.03
2022-10-09T01:10:37.609Z,3.60
2022-10-09T01:13:09.939Z,4.22
2022-10-09T01:15:41.634Z,3.42
2022-10-09T01:18:12.647Z,4.35
2022-10-09T01:20:44.029Z,3.80
2022-10-09T01:23:21.699Z,3.50
2022-10-09T01:25:58.276Z,4.00
2022-10-09T01:28:28.824Z,3.60
2022-10-09T01:30:57.935Z,3.83
2022-10-09T01:33:25.664Z,4.85
2022-10-09T01:35:53.519Z,3.63
2022-10-09T01:38:22.863Z,3.67
2022-10-09T01:40:51.485Z,3.65
2022-10-09T01:43:19.075Z,4.85
2022-10-09T01:45:48.684Z,3.55
2022-10-09T01:48:19.056Z,4.97
2022-10-09T01:50:47.159Z,4.90
2022-10-09T01:53:16.165Z,3.97
2022-10-09T01:55:48.132Z,4.00
2022-10-09T01:58:18.827Z,4.88
2022-10-09T02:00:49.461Z,4.00
2022-10-09T02:03:17.612Z,4.10
2022-10-09T02:05:47.131Z,4.00
2022-10-09T02:08:18.317Z,3.92
2022-10-09T02:10:47.255Z,3.97
2022-10-09T02:13:14.949Z,4.13
2022-10-09T02:15:46.544Z,4.05
2022-10-09T02:18:16.435Z,3.85
2022-10-09T02:20:46.015Z,5.05
2022-10-09T02:23:15.909Z,3.58
2022-10-09T02:25:43.770Z,3.67
2022-10-09T02:28:11.801Z,3.45
2022-10-09T02:30:42.758Z,3.75
2022-10-09T02:33:10.273Z,3.75
2022-10-09T02:35:39.425Z,4.40
2022-10-09T02:38:06.945Z,3.63
2022-10-09T02:40:34.428Z,3.28
2022-10-09T02:43:02.015Z,4.43
2022-10-09T02:45:29.678Z,4.05
2022-10-09T02:47:57.220Z,3.25
2022-10-09T02:50:24.770Z,4.43
2022-10-09T02:52:53.717Z,3.33
2022-10-09T02:55:21.244Z,3.53
2022-10-09T02:57:48.841Z,3.40
2022-10-09T03:00:16.548Z,4.15
2022-10-09T03:02:44.292Z,3.30
2022-10-09T03:05:12.100Z,3.58
2022-10-09T03:07:39.635Z,4.07
2022-10-09T03:10:08.905Z,3.70
2022-10-09T03:12:36.483Z,3.80
2022-10-09T03:15:03.992Z,4.60
2022-10-09T03:17:31.506Z,3.75
2022-10-09T03:19:59.240Z,4.22
2022-10-09T03:22:26.740Z,3.53
2022-10-09T03:24:54.243Z,4.70
2022-10-09T03:27:23.139Z,3.80
2022-10-09T03:29:50.671Z,3.20
2022-10-09T03:32:18.209Z,2.95
2022-10-09T03:34:45.725Z,4.00
2022-10-09T03:37:13.315Z,3.47
2022-10-09T03:39:40.844Z,3.85
2022-10-09T03:42:08.390Z,3.47
2022-10-09T03:44:37.235Z,3.78
2022-10-09T03:47:04.967Z,3.00
2022-10-09T03:49:32.876Z,3.45
2022-10-09T03:52:00.604Z,3.58
2022-10-09T03:54:28.203Z,2.92
2022-10-09T03:56:55.742Z,3.67
2022-10-09T03:59:23.304Z,3.22
2022-10-09T04:01:52.388Z,3.30
2022-10-09T04:04:19.896Z,3.40
2022-10-09T04:06:47.387Z,3.08
2022-10-09T04:09:14.938Z,3.42
2022-10-09T04:11:42.387Z,3.05
2022-10-09T04:14:10.693Z,3.15
2022-10-09T04:16:38.273Z,3.17
2022-10-09T04:19:07.281Z,2.92
2022-10-09T04:21:34.856Z,3.25
2022-10-09T04:24:03.512Z,3.30
2022-10-09T04:26:31.012Z,3.65
2022-10-09T04:28:58.532Z,3.35
2022-10-09T04:31:26.127Z,3.20
2022-10-09T04:33:55.308Z,3.38
2022-10-09T04:36:24.388Z,3.08
2022-10-09T04:38:52.586Z,3.58
2022-10-09T04:41:20.321Z,3.00
2022-10-09T04:43:47.826Z,3.58
2022-10-09T04:46:15.587Z,4.28
2022-10-09T04:48:44.482Z,4.18
2022-10-09T04:51:12.393Z,3.85
2022-10-09T04:53:41.867Z,4.10
2022-10-09T04:56:10.482Z,4.25
2022-10-09T04:58:40.466Z,3.88
2022-10-09T05:01:08.496Z,3.78
2022-10-09T05:03:36.151Z,4.70
2022-10-09T05:06:04.332Z,3.60
2022-10-09T05:08:32.164Z,4.13
2022-10-09T05:11:04.704Z,4.00
2022-10-09T05:13:32.845Z,3.58
2022-10-09T05:16:02.179Z,3.80
2022-10-09T05:18:29.734Z,3.65
2022-10-09T05:20:57.281Z,4.78
2022-10-09T05:23:24.773Z,4.10
2022-10-09T05:25:56.000Z,4.13
2022-10-09T05:28:25.225Z,4.00
2022-10-09T05:30:52.773Z,4.53
2022-10-09T05:33:20.578Z,4.22
2022-10-09T05:35:51.604Z,4.38
2022-10-09T05:38:19.284Z,4.40
2022-10-09T05:40:53.744Z,4.90
2022-10-09T05:43:21.477Z,4.40
2022-10-09T05:45:50.336Z,4.85
2022-10-09T05:48:18.817Z,4.45
2022-10-09T05:50:46.315Z,3.55
2022-10-09T05:53:13.825Z,4.32
2022-10-09T05:55:41.389Z,4.63
2022-10-09T05:58:08.940Z,5.63
2022-10-09T06:00:36.515Z,4.15
2022-10-09T06:03:05.748Z,3.40
2022-10-09T06:05:33.343Z,3.92
2022-10-09T06:08:00.862Z,3.92
2022-10-09T06:10:32.299Z,3.60
2022-10-09T06:13:00.213Z,3.95
2022-10-09T06:15:27.747Z,3.53
2022-10-09T06:17:55.260Z,4.30
2022-10-09T06:20:24.163Z,4.00
2022-10-09T06:22:52.298Z,4.50
2022-10-09T06:25:19.885Z,4.13
2022-10-09T06:27:47.414Z,4.47
2022-10-09T06:30:15.032Z,3.97
2022-10-09T06:32:42.544Z,4.00
2022-10-09T06:35:10.392Z,4.10
2022-10-09T06:37:39.255Z,4.20
2022-10-09T06:40:07.110Z,4.40
2022-10-09T06:42:34.756Z,4.40
2022-10-09T06:45:13.956Z,3.90
2022-10-09T06:47:41.464Z,4.30
2022-10-09T06:50:09.616Z,4.45
2022-10-09T06:52:37.136Z,4.57
2022-10-09T06:55:06.621Z,5.45
2022-10-09T06:57:34.256Z,5.22
2022-10-09T07:00:01.766Z,4.93
2022-10-09T07:02:30.218Z,4.75
2022-10-09T07:04:57.801Z,5.13
2022-10-09T07:07:25.369Z,4.93
2022-10-09T07:09:54.322Z,5.00
2022-10-09T07:12:23.405Z,4.78
2022-10-09T07:14:50.909Z,5.30
2022-10-09T07:17:18.444Z,4.88
2022-10-09T07:19:46.171Z,5.03
2022-10-09T07:22:13.813Z,4.32
2022-10-09T07:24:41.366Z,4.50
2022-10-09T07:27:08.915Z,5.07
2022-10-09T07:29:37.863Z,4.57
2022-10-09T07:32:10.244Z,4.40
2022-10-09T07:34:38.197Z,4.78
2022-10-09T07:37:05.742Z,4.68
2022-10-09T07:39:34.864Z,4.78
2022-10-09T07:42:02.752Z,3.72
2022-10-09T07:44:30.464Z,4.20
2022-10-09T07:46:59.343Z,4.65
2022-10-09T07:49:26.969Z,4.20
2022-10-09T07:51:54.719Z,4.43
2022-10-09T07:54:22.296Z,5.22
2022-10-09T07:56:50.025Z,4.47
2022-10-09T07:59:17.851Z,4.28
2022-10-09T08:01:45.663Z,4.10
2022-10-09T08:04:14.600Z,3.90
2022-10-09T08:06:42.119Z,4.10
2022-10-09T08:09:09.703Z,3.75
2022-10-09T08:11:40.459Z,3.55
2022-10-09T08:14:08.623Z,3.92
2022-10-09T08:16:36.111Z,4.60
2022-10-09T08:19:04.517Z,3.75
2022-10-09T08:21:33.768Z,3.63
2022-10-09T08:24:01.606Z,3.80
2022-10-09T08:26:30.077Z,3.40
2022-10-09T08:28:58.668Z,3.50
2022-10-09T08:31:26.812Z,3.47
2022-10-09T08:33:54.667Z,3.50
2022-10-09T08:36:22.511Z,3.60
2022-10-09T08:38:51.561Z,3.13
2022-10-09T08:41:25.367Z,3.55
2022-10-09T08:43:56.291Z,3.22
2022-10-09T08:46:27.049Z,3.50
2022-10-09T08:48:54.883Z,3.58
2022-10-09T08:51:24.946Z,3.28
2022-10-09T08:53:57.421Z,3.25
2022-10-09T08:56:26.373Z,2.92
2022-10-09T08:58:54.012Z,3.10
2022-10-09T09:01:31.046Z,3.38
2022-10-09T09:04:21.502Z,2.70
2022-10-09T09:06:52.176Z,2.63
2022-10-09T09:09:26.165Z,3.33
2022-10-09T09:11:56.237Z,3.13
2022-10-09T09:14:30.300Z,3.33
2022-10-09T09:16:59.632Z,2.95
2022-10-09T09:19:36.188Z,2.85
2022-10-09T09:22:03.823Z,3.10
2022-10-09T09:24:36.651Z,3.80
2022-10-09T09:27:05.597Z,3.55
2022-10-09T09:29:38.661Z,3.22
2022-10-09T09:32:07.435Z,3.25
2022-10-09T09:34:37.744Z,3.38
2022-10-09T09:37:05.606Z,2.88
2022-10-09T09:42:23.121Z,2.75
2022-10-09T09:44:52.633Z,2.97
2022-10-09T09:47:22.484Z,3.00
2022-10-09T09:49:57.153Z,2.90
2022-10-09T09:52:25.708Z,3.42
2022-10-09T09:54:56.580Z,2.90
2022-10-09T09:57:28.521Z,2.55
2022-10-09T10:00:06.888Z,3.05
2022-10-09T10:02:37.509Z,3.65
2022-10-09T10:05:10.160Z,3.13
2022-10-09T10:07:38.652Z,2.88
2022-10-09T10:10:11.060Z,2.58
2022-10-09T10:12:41.214Z,2.92
2022-10-09T10:15:16.764Z,2.83
2022-10-09T10:17:44.354Z,2.60
2022-10-09T10:20:12.794Z,2.47
2022-10-09T10:22:40.311Z,2.67
2022-10-09T10:25:16.193Z,2.40
2022-10-09T10:27:44.736Z,2.70
2022-10-09T10:30:14.033Z,2.90
2022-10-09T10:32:51.193Z,2.30
2022-10-09T10:35:21.011Z,2.92
2022-10-09T10:37:51.434Z,3.00
2022-10-09T10:40:23.184Z,2.67
2022-10-09T10:43:02.661Z,2.75
2022-10-09T10:45:32.051Z,3.00
2022-10-09T10:48:00.815Z,2.30
2022-10-09T10:50:30.306Z,2.95
2022-10-09T10:53:03.517Z,2.47
2022-10-09T10:55:37.688Z,2.83
2022-10-09T10:58:13.503Z,2.80
2022-10-09T11:00:43.942Z,2.35
2022-10-09T11:03:20.753Z,2.20
2022-10-09T11:05:51.443Z,2.40
2022-10-09T11:08:25.168Z,2.53
2022-10-09T11:11:00.415Z,2.30
2022-10-09T11:13:32.162Z,2.78
2022-10-09T11:16:04.597Z,2.80
2022-10-09T11:18:36.654Z,2.30
2022-10-09T11:21:11.929Z,2.20
2022-10-09T11:23:46.120Z,2.60
2022-10-09T11:26:19.278Z,2.22
2022-10-09T11:28:49.495Z,2.85
2022-10-09T11:31:19.957Z,2.70
2022-10-09T11:33:49.940Z,2.53
2022-10-09T11:36:19.321Z,2.80
2022-10-09T11:38:47.772Z,2.30
2022-10-09T11:41:17.047Z,2.63
2022-10-09T11:43:50.917Z,2.58
2022-10-09T11:46:22.208Z,2.70
2022-10-09T11:48:55.116Z,2.65
2022-10-09T11:51:28.485Z,2.50
2022-10-09T11:53:56.391Z,2.42
2022-10-09T11:56:26.033Z,2.65
2022-10-09T11:58:57.367Z,2.85
2022-10-09T12:01:26.782Z,2.65
2022-10-09T12:04:01.588Z,2.30
2022-10-09T12:06:29.281Z,2.38
2022-10-09T12:08:58.715Z,2.78
2022-10-09T12:11:28.091Z,2.80
2022-10-09T12:13:56.568Z,2.95
2022-10-09T12:16:34.521Z,3.03
2022-10-09T12:19:03.521Z,2.72
2022-10-09T12:21:33.491Z,2.80
2022-10-09T12:24:01.738Z,3.03
2022-10-09T12:26:30.989Z,2.70
2022-10-09T12:28:59.619Z,2.58
2022-10-09T12:31:28.757Z,3.03
2022-10-09T12:33:58.315Z,3.40
2022-10-09T12:36:26.953Z,2.83
2022-10-09T12:38:54.817Z,3.22
2022-10-09T12:41:25.739Z,2.60
2022-10-09T12:43:55.579Z,3.10
2022-10-09T12:46:27.248Z,2.75
2022-10-09T12:48:55.189Z,2.45
2022-10-09T12:51:24.707Z,2.67
2022-10-09T12:53:53.042Z,2.72
2022-10-09T12:56:23.540Z,2.60
2022-10-09T12:58:51.733Z,2.75
2022-10-09T13:01:21.113Z,2.40
2022-10-09T13:03:56.195Z,4.00
2022-10-09T13:06:25.034Z,2.83
2022-10-09T13:08:53.469Z,2.17
2022-10-09T13:11:22.576Z,2.60
2022-10-09T13:13:50.417Z,2.95
2022-10-09T13:16:18.040Z,2.10
2022-10-09T13:18:55.903Z,2.53
2022-10-09T13:21:28.984Z,2.50
2022-10-09T13:24:07.838Z,2.30
2022-10-09T13:26:35.446Z,2.78
2022-10-09T13:29:03.646Z,2.50
2022-10-09T13:31:32.753Z,2.60
2022-10-09T13:34:01.887Z,2.60
2022-10-09T13:36:29.556Z,2.38
2022-10-09T13:38:57.991Z,2.33
2022-10-09T13:41:25.768Z,2.50
2022-10-09T13:43:54.009Z,2.58
2022-10-09T13:46:21.856Z,2.88
2022-10-09T13:48:49.416Z,2.60
2022-10-09T13:51:18.408Z,3.17
2022-10-09T13:53:45.932Z,2.70
2022-10-09T13:56:13.501Z,2.75
2022-10-09T13:58:41.050Z,3.40
2022-10-09T14:01:09.173Z,2.72
2022-10-09T14:03:36.774Z,2.75
2022-10-09T14:06:04.712Z,2.75
2022-10-09T14:08:33.584Z,2.83
2022-10-09T14:11:01.452Z,2.95
2022-10-09T14:13:29.467Z,2.80
2022-10-09T14:15:57.306Z,2.50
2022-10-09T14:18:24.869Z,3.10
2022-10-09T14:20:52.416Z,2.50
2022-10-09T14:23:19.986Z,2.58
2022-10-09T14:25:48.995Z,2.38
2022-10-09T14:28:16.599Z,2.50
2022-10-09T14:30:44.820Z,2.47
2022-10-09T14:33:13.366Z,2.25
2022-10-09T14:35:40.930Z,3.53
2022-10-09T14:38:08.557Z,2.40
2022-10-09T14:40:37.830Z,2.40
2022-10-09T14:43:06.709Z,2.97
2022-10-09T14:45:34.268Z,2.55
2022-10-09T14:48:01.881Z,2.83
2022-10-09T14:50:29.402Z,2.63
2022-10-09T14:52:57.148Z,2.58
2022-10-09T14:55:24.733Z,2.47
2022-10-09T14:57:52.307Z,2.35
2022-10-09T15:00:21.314Z,2.60
2022-10-09T15:02:48.821Z,2.47
2022-10-09T15:05:16.453Z,2.40
2022-10-09T15:07:43.931Z,2.72
2022-10-09T15:10:12.457Z,2.50
2022-10-09T15:12:40.792Z,2.10
2022-10-09T15:15:08.803Z,2.38
2022-10-09T15:17:37.677Z,2.83
2022-10-09T15:20:05.386Z,2.45
2022-10-09T15:22:32.927Z,2.60
2022-10-09T15:25:00.436Z,2.40
2022-10-09T15:27:28.243Z,2.90
2022-10-09T15:29:55.805Z,2.53
2022-10-09T15:32:24.687Z,2.33
2022-10-09T15:34:53.603Z,2.83
2022-10-09T15:37:21.220Z,2.30
2022-10-09T15:39:48.778Z,2.80
2022-10-09T15:42:16.319Z,2.60
2022-10-09T15:44:43.962Z,2.50
2022-10-09T15:47:16.408Z,3.00
2022-10-09T15:49:44.698Z,2.80
2022-10-09T15:52:13.808Z,2.40
2022-10-09T15:54:41.470Z,3.25
2022-10-09T15:57:08.946Z,2.47
2022-10-09T15:59:40.051Z,2.50
2022-10-09T16:02:07.693Z,2.63
2022-10-09T16:04:35.223Z,2.50
2022-10-09T16:07:03.154Z,2.67
2022-10-09T16:09:34.049Z,2.72
2022-10-09T16:12:01.765Z,2.53
2022-10-09T16:14:29.871Z,2.83
2022-10-09T16:16:57.539Z,2.75
2022-10-09T16:19:25.405Z,2.80
2022-10-09T16:21:53.047Z,2.80
2022-10-09T16:24:20.539Z,2.47
2022-10-09T16:26:50.908Z,2.80
2022-10-09T16:29:18.489Z,2.90
2022-10-09T16:31:46.041Z,2.70
2022-10-09T16:34:13.545Z,3.00
2022-10-09T16:36:41.023Z,3.55
2022-10-09T16:39:08.811Z,2.92
2022-10-09T16:41:41.643Z,2.83
2022-10-09T16:44:14.104Z,3.30
2022-10-09T16:46:41.726Z,3.22
2022-10-09T16:49:14.248Z,3.25
2022-10-09T16:51:41.775Z,3.38
2022-10-09T16:54:10.831Z,3.85
2022-10-09T16:56:39.897Z,4.55
2022-10-09T16:59:09.061Z,5.38
2022-10-09T17:01:42.250Z,4.80
2022-10-09T17:04:10.038Z,5.80
2022-10-09T17:06:37.557Z,6.78
2022-10-09T17:09:13.264Z,8.55
2022-10-09T17:11:41.680Z,7.60
2022-10-09T17:14:09.243Z,7.75
2022-10-09T17:16:39.271Z,6.53
2022-10-09T17:19:06.999Z,6.78
2022-10-09T17:21:34.950Z,6.90
2022-10-09T17:24:03.749Z,7.60
2022-10-09T17:26:31.607Z,7.50
2022-10-09T17:28:59.725Z,15.18
2022-10-09T17:31:28.158Z,14.30
2022-10-09T17:33:58.236Z,9.90
2022-10-09T17:36:27.271Z,8.95
2022-10-09T17:38:54.837Z,10.02
2022-10-09T17:41:23.536Z,7.50
2022-10-09T17:43:51.334Z,8.38
2022-10-09T17:46:19.350Z,7.07
2022-10-09T17:48:52.517Z,7.72
2022-10-09T17:51:23.771Z,8.13
2022-10-09T17:53:51.379Z,8.35
2022-10-09T17:56:18.988Z,6.47
2022-10-09T17:58:48.616Z,5.60
2022-10-09T18:01:16.629Z,5.88
2022-10-09T18:03:44.819Z,5.93
2022-10-09T18:06:13.272Z,5.00
2022-10-09T18:08:42.629Z,5.40
2022-10-09T18:11:11.128Z,6.60
2022-10-09T18:13:39.419Z,5.57
2022-10-09T18:16:07.125Z,6.50
2022-10-09T18:18:34.752Z,6.75
2022-10-09T18:21:05.997Z,7.03
2022-10-09T18:23:33.714Z,7.72
2022-10-09T18:26:02.654Z,8.50
2022-10-09T18:28:30.262Z,6.68
2022-10-09T18:30:58.660Z,6.03
2022-10-09T18:33:26.173Z,5.72
2022-10-09T18:35:53.748Z,5.43
2022-10-09T18:38:21.306Z,5.07
2022-10-09T18:40:48.824Z,4.70
2022-10-09T18:43:17.758Z,4.18
2022-10-09T18:45:46.716Z,4.28
2022-10-09T18:48:14.857Z,4.30
2022-10-09T18:50:42.654Z,4.10
2022-10-09T18:53:10.743Z,4.63
2022-10-09T18:55:38.485Z,4.50
2022-10-09T18:58:06.509Z,3.75
2022-10-09T19:00:37.035Z,4.50
2022-10-09T19:03:04.948Z,4.90
2022-10-09T19:05:32.448Z,4.82
2022-10-09T19:08:00.190Z,4.13
2022-10-09T19:10:27.727Z,3.67
2022-10-09T19:12:55.309Z,3.85
2022-10-09T19:15:23.188Z,3.63
2022-10-09T19:17:52.316Z,3.40
2022-10-09T19:20:20.290Z,3.50
2022-10-09T19:22:47.915Z,3.53
2022-10-09T19:25:15.540Z,3.17
2022-10-09T19:27:43.095Z,3.08
2022-10-09T19:30:11.060Z,3.30
2022-10-09T19:32:38.616Z,2.92
2022-10-09T19:35:08.049Z,3.40
2022-10-09T19:37:35.838Z,3.70
2022-10-09T19:40:03.356Z,3.30
2022-10-09T19:42:30.863Z,3.38
2022-10-09T19:44:58.441Z,3.00
2022-10-09T19:47:26.085Z,3.38
2022-10-09T19:49:53.637Z,3.45
2022-10-09T19:52:23.103Z,3.05
2022-10-09T19:54:50.690Z,3.58
2022-10-09T19:57:18.208Z,3.38
2022-10-09T19:59:45.828Z,3.60
2022-10-09T20:02:13.663Z,3.22
2022-10-09T20:04:41.319Z,3.40
2022-10-09T20:07:12.544Z,3.40
2022-10-09T20:09:41.804Z,3.20
2022-10-09T20:12:09.630Z,2.85
2022-10-09T20:14:37.141Z,3.33
2022-10-09T20:17:04.689Z,2.88
2022-10-09T20:19:32.245Z,3.38
2022-10-09T20:21:59.755Z,3.33
2022-10-09T20:24:27.340Z,3.13
2022-10-09T20:26:56.270Z,3.35
2022-10-09T20:29:26.631Z,3.17
2022-10-09T20:31:54.976Z,3.33
2022-10-09T20:34:22.840Z,3.50
2022-10-09T20:36:50.459Z,3.58
2022-10-09T20:39:19.499Z,3.60
2022-10-09T20:41:47.116Z,3.03
2022-10-09T20:44:15.957Z,3.17
2022-10-09T20:46:44.087Z,3.30
2022-10-09T20:49:12.613Z,3.35
2022-10-09T20:51:40.428Z,3.03
2022-10-09T20:54:08.968Z,3.13
2022-10-09T20:56:36.864Z,3.45
2022-10-09T20:59:04.570Z,3.33
2022-10-09T21:01:33.808Z,3.05
2022-10-09T21:04:01.508Z,3.05
2022-10-09T21:06:30.026Z,2.92
2022-10-09T21:08:57.911Z,3.00
2022-10-09T21:11:25.744Z,2.75
2022-10-09T21:13:53.345Z,2.70
2022-10-09T21:16:21.835Z,2.67
2022-10-09T21:18:53.732Z,3.15
2022-10-09T21:21:21.251Z,3.30
2022-10-09T21:23:50.728Z,3.20
2022-10-09T21:26:19.926Z,2.83
2022-10-09T21:28:47.772Z,3.10
2022-10-09T21:31:16.640Z,3.38
2022-10-09T21:33:44.191Z,2.55
2022-10-09T21:36:14.052Z,2.88
2022-10-09T21:38:41.566Z,2.95
2022-10-09T21:41:09.253Z,3.00
2022-10-09T21:43:36.816Z,2.70
2022-10-09T21:46:04.392Z,3.08
2022-10-09T21:48:32.088Z,2.40
2022-10-09T21:50:59.657Z,2.80
2022-10-09T21:53:28.750Z,2.85
2022-10-09T21:55:56.372Z,2.70
2022-10-09T21:58:23.935Z,2.55
2022-10-09T22:00:55.991Z,2.42
2022-10-09T22:03:24.480Z,2.55
2022-10-09T22:05:52.084Z,2.60
2022-10-09T22:08:19.721Z,2.50
2022-10-09T22:10:49.567Z,2.90
2022-10-09T22:13:17.499Z,2.50
2022-10-09T22:15:50.792Z,2.50
2022-10-09T22:18:18.903Z,2.78
2022-10-09T22:20:47.306Z,3.17
2022-10-09T22:23:14.884Z,3.00
2022-10-09T22:25:42.393Z,2.83
2022-10-09T22:28:11.407Z,2.88
2022-10-09T22:30:38.976Z,3.10
2022-10-09T22:33:06.484Z,2.60
2022-10-09T22:35:34.033Z,2.50
2022-10-09T22:38:01.550Z,2.38
2022-10-09T22:40:29.176Z,2.58
2022-10-09T22:42:56.672Z,2.67
2022-10-09T22:45:25.592Z,2.47
2022-10-09T22:47:53.177Z,2.35
2022-10-09T22:50:20.730Z,2.58
2022-10-09T22:52:48.544Z,2.35
2022-10-09T22:55:16.273Z,2.13
2022-10-09T22:57:43.769Z,2.80
2022-10-09T23:00:12.042Z,2.17
2022-10-09T23:02:40.940Z,2.80
2022-10-09T23:05:08.702Z,2.40
2022-10-09T23:07:36.294Z,2.63
2022-10-09T23:10:03.939Z,2.28
2022-10-09T23:12:31.580Z,2.33
2022-10-09T23:14:59.256Z,2.10
2022-10-09T23:17:26.745Z,2.58
2022-10-09T23:19:55.604Z,2.30
2022-10-09T23:22:23.109Z,2.60
2022-10-09T23:24:50.702Z,2.50
2022-10-09T23:27:18.259Z,2.10
2022-10-09T23:29:45.817Z,2.58
2022-10-09T23:32:13.382Z,2.63
2022-10-09T23:34:40.945Z,2.20
2022-10-09T23:37:09.836Z,2.10
2022-10-09T23:39:37.710Z,2.25
2022-10-09T23:42:05.495Z,2.40
2022-10-09T23:44:33.032Z,2.83
2022-10-09T23:47:00.522Z,2.30
2022-10-09T23:49:28.040Z,2.25
2022-10-09T23:51:55.535Z,2.20
2022-10-09T23:54:24.420Z,2.40
2022-10-09T23:56:51.917Z,2.20
2022-10-09T23:59:19.447Z,2.35
